Extreme low temperature From: 25-02-2018 16:00 Until: 26-02-2018 16:00 warning for: Extreme low temperature Level: Yellow info button

Although rather usual in this region, locally or potentially dangerous phenomena are expected. (such as local winds, summer thunderstorms, rising streams or high waves) Be aware and pay attention to the latest weather updates, especially if you carry out activities exposed to weather or close to a stream or shoreline. 


Meteo18 Weather Cam more information Meteo18 Weather Cam


Thunder radar more information blitzortung!


Rain radar more information rain snow radar


Visit our other weather sites:

Template documentation
and downloads

And another site



Weather Underground History page Text

Daily Summary for January 6, 2018 Units:  Both    English   Metric
« Previous Day
Next Day »
Daily Weekly Monthly Yearly Custom
  High: Low: Average:
Temperature: TemperatureC °F /  -17.8 °C 6.0 °F /  -14.4 °C 6.6 °F /  -14.1 °C
Dew Point: DewpointC °F /  -17.8 °C 5.2 °F /  -14.9 °C 5.9 °F /  -14.5 °C
Humidity: Humidity % 93 % 95 %
Wind Speed: WindSpeedKMH mph /  0 km/h - 3.3 mph /  5.3 km/h
Wind Gust: WindSpeedGustKMH mph /  0 km/h - -
Wind:- - SSE
Pressure: PressurehPa in /  0 hPa 1003.9 in /  33992.1 hPa -
Precipitation: 10.4 in /  264.16 mm    
Historical Graphs
 
 
Tabular Data for January 6, 2018
Time Temperature Dew Point Pressure Wind Wind Speed Wind Gust Humidity Rainfall Rate (Hourly)
TemperatureC °F /  -17.8 °C DewpointC °F /  -17.8 °C PressurehPa in /  0 hPa Calm     Humidity % HourlyPrecipMM in /  0 mm
00:02 7.9 °F /  -13.4 °C 7.3 °F /  -13.7 °C 1004.6 in /  34015.8 hPa South 1.4 mph /  2.3 km/h 4.8 mph /  7.7 km/h 96 % 0.3 in /  7.62 mm
00:08 7.8 °F /  -13.4 °C 7.2 °F /  -13.8 °C 1005.0 in /  34029.3 hPa WSW 3.2 mph /  5.1 km/h 4.8 mph /  7.7 km/h 96 % 0.0 in /  0 mm
00:14 7.8 °F /  -13.4 °C 7.2 °F /  -13.8 °C 1005.0 in /  34029.3 hPa SSW 1.4 mph /  2.3 km/h 4.8 mph /  7.7 km/h 96 % 0.0 in /  0 mm
00:20 7.8 °F /  -13.4 °C 7.2 °F /  -13.8 °C 1004.6 in /  34015.8 hPa South 3.2 mph /  5.1 km/h 3.2 mph /  5.1 km/h 96 % 0.0 in /  0 mm
00:26 7.8 °F /  -13.4 °C 7.2 °F /  -13.8 °C 1004.6 in /  34015.8 hPa SSW 1.4 mph /  2.3 km/h 3.2 mph /  5.1 km/h 96 % 0.0 in /  0 mm
00:28 7.8 °F /  -13.4 °C 7.2 °F /  -13.8 °C 1004.6 in /  34015.8 hPa Calm   3.2 mph /  5.1 km/h 96 % 0.0 in /  0 mm
00:32 7.8 °F /  -13.4 °C 7.2 °F /  -13.8 °C 1004.6 in /  34015.8 hPa SSW 1.4 mph /  2.3 km/h 3.2 mph /  5.1 km/h 96 % 0.0 in /  0 mm
00:38 7.8 °F /  -13.4 °C 7.2 °F /  -13.8 °C 1004.6 in /  34015.8 hPa SSW 1.4 mph /  2.3 km/h 4.8 mph /  7.7 km/h 96 % 0.0 in /  0 mm
00:44 7.8 °F /  -13.4 °C 7.2 °F /  -13.8 °C 1004.6 in /  34015.8 hPa Calm   1.6 mph /  2.6 km/h 96 % 0.0 in /  0 mm
00:51 7.8 °F /  -13.4 °C 7.2 °F /  -13.8 °C 1004.6 in /  34015.8 hPa Calm   3.2 mph /  5.1 km/h 96 % 0.0 in /  0 mm
00:57 7.8 °F /  -13.4 °C 7.2 °F /  -13.8 °C 1004.6 in /  34015.8 hPa SSW 1.4 mph /  2.3 km/h 3.2 mph /  5.1 km/h 96 % 0.0 in /  0 mm
01:03 7.8 °F /  -13.4 °C 7.2 °F /  -13.8 °C 1004.6 in /  34015.8 hPa SW 1.4 mph /  2.3 km/h 4.8 mph /  7.7 km/h 96 % 0.0 in /  0 mm
01:09 7.8 °F /  -13.4 °C 7.2 °F /  -13.8 °C 1004.6 in /  34015.8 hPa SW 3.2 mph /  5.1 km/h 6.4 mph /  10.3 km/h 96 % 0.0 in /  0 mm
01:17 7.8 °F /  -13.4 °C 7.2 °F /  -13.8 °C 1004.6 in /  34015.8 hPa SW 1.4 mph /  2.3 km/h 3.2 mph /  5.1 km/h 96 % 0.0 in /  0 mm
01:23 7.8 °F /  -13.4 °C 7.2 °F /  -13.8 °C 1004.6 in /  34015.8 hPa Calm   1.6 mph /  2.6 km/h 96 % 0.0 in /  0 mm
01:31 7.7 °F /  -13.5 °C 7.1 °F /  -13.8 °C 1004.6 in /  34015.8 hPa SSW 1.4 mph /  2.3 km/h 3.2 mph /  5.1 km/h 96 % 0.0 in /  0 mm
01:43 7.6 °F /  -13.6 °C 7.0 °F /  -13.9 °C 1004.6 in /  34015.8 hPa SW 3.2 mph /  5.1 km/h 4.8 mph /  7.7 km/h 96 % 0.0 in /  0 mm
01:49 7.6 °F /  -13.6 °C 7.0 °F /  -13.9 °C 1004.6 in /  34015.8 hPa SSW 1.4 mph /  2.3 km/h 3.2 mph /  5.1 km/h 96 % 0.0 in /  0 mm
01:59 7.6 °F /  -13.6 °C 7.0 °F /  -13.9 °C 1004.6 in /  34015.8 hPa SW 1.4 mph /  2.3 km/h 3.2 mph /  5.1 km/h 96 % 0.0 in /  0 mm
02:09 7.6 °F /  -13.6 °C 7.2 °F /  -13.8 °C 1004.3 in /  34005.6 hPa SW 1.4 mph /  2.3 km/h 4.8 mph /  7.7 km/h 97 % 0.0 in /  0 mm
02:15 7.6 °F /  -13.6 °C 7.2 °F /  -13.8 °C 1004.6 in /  34015.8 hPa SSW 4.7 mph /  7.6 km/h 8.0 mph /  12.9 km/h 97 % 0.0 in /  0 mm
02:21 7.6 °F /  -13.6 °C 7.2 °F /  -13.8 °C 1004.6 in /  34015.8 hPa SW 3.2 mph /  5.1 km/h 6.4 mph /  10.3 km/h 97 % 0.0 in /  0 mm
02:27 7.6 °F /  -13.6 °C 7.2 °F /  -13.8 °C 1004.6 in /  34015.8 hPa SW 3.2 mph /  5.1 km/h 4.8 mph /  7.7 km/h 97 % 0.0 in /  0 mm
02:29 7.7 °F /  -13.5 °C 7.3 °F /  -13.7 °C 1004.6 in /  34015.8 hPa SW 1.4 mph /  2.3 km/h 4.8 mph /  7.7 km/h 97 % 0.0 in /  0 mm
02:35 7.7 °F /  -13.5 °C 7.3 °F /  -13.7 °C 1004.6 in /  34015.8 hPa SW 3.2 mph /  5.1 km/h 6.4 mph /  10.3 km/h 97 % 0.0 in /  0 mm
02:41 7.7 °F /  -13.5 °C 7.3 °F /  -13.7 °C 1004.6 in /  34015.8 hPa SSW 1.4 mph /  2.3 km/h 4.8 mph /  7.7 km/h 97 % 0.0 in /  0 mm
02:47 7.7 °F /  -13.5 °C 7.1 °F /  -13.8 °C 1004.6 in /  34015.8 hPa Calm   3.2 mph /  5.1 km/h 96 % 0.0 in /  0 mm
02:59 7.6 °F /  -13.6 °C 7.0 °F /  -13.9 °C 1004.6 in /  34015.8 hPa SW 1.4 mph /  2.3 km/h 1.6 mph /  2.6 km/h 96 % 0.0 in /  0 mm
03:07 7.5 °F /  -13.6 °C 6.9 °F /  -13.9 °C 1004.6 in /  34015.8 hPa Calm   1.6 mph /  2.6 km/h 96 % 0.0 in /  0 mm
03:13 7.4 °F /  -13.7 °C 6.8 °F /  -14 °C 1004.6 in /  34015.8 hPa Calm     96 % 0.0 in /  0 mm
03:19 7.3 °F /  -13.7 °C 6.7 °F /  -14.1 °C 1004.6 in /  34015.8 hPa SSW 3.2 mph /  5.1 km/h 3.2 mph /  5.1 km/h 96 % 0.0 in /  0 mm
03:23 7.3 °F /  -13.7 °C 6.7 °F /  -14.1 °C 1004.6 in /  34015.8 hPa SSW 1.4 mph /  2.3 km/h 3.2 mph /  5.1 km/h 96 % 0.0 in /  0 mm
03:29 7.2 °F /  -13.8 °C 6.8 °F /  -14 °C 1004.6 in /  34015.8 hPa SW 1.4 mph /  2.3 km/h 1.6 mph /  2.6 km/h 97 % 0.0 in /  0 mm
03:35 7.2 °F /  -13.8 °C 6.8 °F /  -14 °C 1004.6 in /  34015.8 hPa SW 3.2 mph /  5.1 km/h 3.2 mph /  5.1 km/h 97 % 0.0 in /  0 mm
03:41 7.2 °F /  -13.8 °C 6.8 °F /  -14 °C 1004.6 in /  34015.8 hPa Calm     97 % 0.0 in /  0 mm
03:47 7.2 °F /  -13.8 °C 6.8 °F /  -14 °C 1004.6 in /  34015.8 hPa Calm   1.6 mph /  2.6 km/h 97 % 0.0 in /  0 mm
03:53 7.2 °F /  -13.8 °C 6.8 °F /  -14 °C 1004.6 in /  34015.8 hPa Calm   1.6 mph /  2.6 km/h 97 % 0.0 in /  0 mm
03:59 7.3 °F /  -13.7 °C 6.9 °F /  -13.9 °C 1004.3 in /  34005.6 hPa SW 1.4 mph /  2.3 km/h 1.6 mph /  2.6 km/h 97 % 0.0 in /  0 mm
04:05 7.2 °F /  -13.8 °C 6.8 °F /  -14 °C 1004.3 in /  34005.6 hPa SW 3.2 mph /  5.1 km/h 3.2 mph /  5.1 km/h 97 % 0.0 in /  0 mm
04:12 7.1 °F /  -13.8 °C 6.7 °F /  -14.1 °C 1004.3 in /  34005.6 hPa SW 1.4 mph /  2.3 km/h 1.6 mph /  2.6 km/h 97 % 0.0 in /  0 mm
04:16 7.2 °F /  -13.8 °C 6.8 °F /  -14 °C 1004.3 in /  34005.6 hPa SW 1.4 mph /  2.3 km/h 3.2 mph /  5.1 km/h 97 % 0.0 in /  0 mm
04:22 7.2 °F /  -13.8 °C 6.8 °F /  -14 °C 1004.3 in /  34005.6 hPa SSW 1.4 mph /  2.3 km/h 1.6 mph /  2.6 km/h 97 % 0.0 in /  0 mm
04:29 7.3 °F /  -13.7 °C 6.9 °F /  -13.9 °C 1004.3 in /  34005.6 hPa SW 1.4 mph /  2.3 km/h 1.6 mph /  2.6 km/h 97 % 0.0 in /  0 mm
04:34 7.2 °F /  -13.8 °C 6.6 °F /  -14.1 °C 1003.9 in /  33992.1 hPa Calm     96 % 0.0 in /  0 mm
04:40 7.2 °F /  -13.8 °C 6.8 °F /  -14 °C 1003.9 in /  33992.1 hPa Calm     97 % 0.0 in /  0 mm
04:46 7.1 °F /  -13.8 °C 6.7 °F /  -14.1 °C 1003.9 in /  33992.1 hPa Calm   1.6 mph /  2.6 km/h 97 % 0.0 in /  0 mm
04:52 7.1 °F /  -13.8 °C 6.5 °F /  -14.2 °C 1003.9 in /  33992.1 hPa Calm     96 % 0.0 in /  0 mm
05:06 6.9 °F /  -13.9 °C 6.3 °F /  -14.3 °C 1003.9 in /  33992.1 hPa SE 1.4 mph /  2.3 km/h 1.6 mph /  2.6 km/h 96 % 0.0 in /  0 mm
05:12 6.9 °F /  -13.9 °C 6.5 °F /  -14.2 °C 1003.9 in /  33992.1 hPa Calm     97 % 0.0 in /  0 mm
05:18 6.9 °F /  -13.9 °C 6.5 °F /  -14.2 °C 1003.9 in /  33992.1 hPa East 1.4 mph /  2.3 km/h 1.6 mph /  2.6 km/h 97 % 0.0 in /  0 mm
05:24 7.0 °F /  -13.9 °C 6.6 °F /  -14.1 °C 1003.9 in /  33992.1 hPa Calm     97 % 0.0 in /  0 mm
05:34 7.0 °F /  -13.9 °C 6.6 °F /  -14.1 °C 1003.9 in /  33992.1 hPa Calm     97 % 0.0 in /  0 mm
05:36 7.0 °F /  -13.9 °C 6.6 °F /  -14.1 °C 1003.9 in /  33992.1 hPa Calm     97 % 0.3 in /  7.62 mm
05:42 7.1 °F /  -13.8 °C 6.7 °F /  -14.1 °C 1003.9 in /  33992.1 hPa Calm   1.6 mph /  2.6 km/h 97 % 0.3 in /  7.62 mm
05:48 7.0 °F /  -13.9 °C 6.6 °F /  -14.1 °C 1003.9 in /  33992.1 hPa Calm   1.6 mph /  2.6 km/h 97 % 0.3 in /  7.62 mm
05:54 7.0 °F /  -13.9 °C 6.6 °F /  -14.1 °C 1003.9 in /  33992.1 hPa Calm   1.6 mph /  2.6 km/h 97 % 0.5 in /  12.7 mm
06:00 6.9 °F /  -13.9 °C 6.5 °F /  -14.2 °C 1003.9 in /  33992.1 hPa Calm   1.6 mph /  2.6 km/h 97 % 0.5 in /  12.7 mm
06:06 6.8 °F /  -14 °C 6.4 °F /  -14.2 °C 1003.9 in /  33992.1 hPa Calm   1.6 mph /  2.6 km/h 97 % 0.5 in /  12.7 mm
06:14 6.8 °F /  -14 °C 6.4 °F /  -14.2 °C 1003.9 in /  33992.1 hPa Calm   3.2 mph /  5.1 km/h 97 % 0.5 in /  12.7 mm
06:20 6.8 °F /  -14 °C 6.4 °F /  -14.2 °C 1003.9 in /  33992.1 hPa Calm   1.6 mph /  2.6 km/h 97 % 0.5 in /  12.7 mm
06:26 6.8 °F /  -14 °C 6.4 °F /  -14.2 °C 1003.9 in /  33992.1 hPa East 1.4 mph /  2.3 km/h 1.6 mph /  2.6 km/h 97 % 0.5 in /  12.7 mm
06:32 6.8 °F /  -14 °C 6.4 °F /  -14.2 °C 1003.9 in /  33992.1 hPa Calm   1.6 mph /  2.6 km/h 97 % 0.5 in /  12.7 mm
06:38 6.8 °F /  -14 °C 6.4 °F /  -14.2 °C 1004.3 in /  34005.6 hPa Calm   1.6 mph /  2.6 km/h 97 % 0.5 in /  12.7 mm
06:54 6.8 °F /  -14 °C 6.4 °F /  -14.2 °C 1004.3 in /  34005.6 hPa Calm     97 % 0.5 in /  12.7 mm
07:00 6.8 °F /  -14 °C 6.4 °F /  -14.2 °C 1004.3 in /  34005.6 hPa Calm     97 % 0.5 in /  12.7 mm
07:06 6.9 °F /  -13.9 °C 6.5 °F /  -14.2 °C 1004.3 in /  34005.6 hPa Calm     97 % 0.8 in /  20.32 mm
07:14 6.9 °F /  -13.9 °C 6.5 °F /  -14.2 °C 1004.3 in /  34005.6 hPa Calm     97 % 1.0 in /  25.4 mm
07:22 6.9 °F /  -13.9 °C 6.5 °F /  -14.2 °C 1004.3 in /  34005.6 hPa Calm   1.6 mph /  2.6 km/h 97 % 1.0 in /  25.4 mm
07:28 6.9 °F /  -13.9 °C 6.5 °F /  -14.2 °C 1004.3 in /  34005.6 hPa Calm     97 % 1.3 in /  33.02 mm
07:34 6.9 °F /  -13.9 °C 6.5 °F /  -14.2 °C 1004.3 in /  34005.6 hPa Calm     97 % 1.5 in /  38.1 mm
07:36 6.9 °F /  -13.9 °C 6.5 °F /  -14.2 °C 1004.3 in /  34005.6 hPa Calm     97 % 1.5 in /  38.1 mm
07:40 6.9 °F /  -13.9 °C 6.5 °F /  -14.2 °C 1004.3 in /  34005.6 hPa Calm     97 % 1.5 in /  38.1 mm
07:48 6.8 °F /  -14 °C 6.4 °F /  -14.2 °C 1004.6 in /  34015.8 hPa Calm   3.2 mph /  5.1 km/h 97 % 1.5 in /  38.1 mm
07:54 6.9 °F /  -13.9 °C 6.5 °F /  -14.2 °C 1004.6 in /  34015.8 hPa Calm   1.6 mph /  2.6 km/h 97 % 1.5 in /  38.1 mm
08:00 6.9 °F /  -13.9 °C 6.5 °F /  -14.2 °C 1004.3 in /  34005.6 hPa ESE 1.4 mph /  2.3 km/h 1.6 mph /  2.6 km/h 97 % 1.5 in /  38.1 mm
08:06 6.9 °F /  -13.9 °C 6.5 °F /  -14.2 °C 1004.3 in /  34005.6 hPa Calm   1.6 mph /  2.6 km/h 97 % 1.5 in /  38.1 mm
08:14 6.9 °F /  -13.9 °C 6.5 °F /  -14.2 °C 1004.3 in /  34005.6 hPa Calm   1.6 mph /  2.6 km/h 97 % 1.5 in /  38.1 mm
08:18 6.9 °F /  -13.9 °C 6.5 °F /  -14.2 °C 1004.6 in /  34015.8 hPa Calm   1.6 mph /  2.6 km/h 97 % 1.5 in /  38.1 mm
08:24 6.9 °F /  -13.9 °C 6.5 °F /  -14.2 °C 1004.6 in /  34015.8 hPa Calm   1.6 mph /  2.6 km/h 97 % 1.5 in /  38.1 mm
08:33 6.9 °F /  -13.9 °C 6.5 °F /  -14.2 °C 1004.6 in /  34015.8 hPa Calm   1.6 mph /  2.6 km/h 97 % 1.5 in /  38.1 mm
08:38 6.8 °F /  -14 °C 6.4 °F /  -14.2 °C 1004.6 in /  34015.8 hPa Calm   1.6 mph /  2.6 km/h 97 % 1.3 in /  33.02 mm
08:44 6.9 °F /  -13.9 °C 6.5 °F /  -14.2 °C 1004.6 in /  34015.8 hPa Calm   1.6 mph /  2.6 km/h 97 % 1.0 in /  25.4 mm
08:51 6.9 °F /  -13.9 °C 6.5 °F /  -14.2 °C 1004.6 in /  34015.8 hPa Calm   1.6 mph /  2.6 km/h 97 % 1.3 in /  33.02 mm
08:57 6.9 °F /  -13.9 °C 6.5 °F /  -14.2 °C 1004.6 in /  34015.8 hPa Calm     97 % 1.0 in /  25.4 mm
09:05 6.9 °F /  -13.9 °C 6.5 °F /  -14.2 °C 1005.0 in /  34029.3 hPa East 3.2 mph /  5.1 km/h 3.2 mph /  5.1 km/h 97 % 1.3 in /  33.02 mm
09:07 6.9 °F /  -13.9 °C 6.5 °F /  -14.2 °C 1005.0 in /  34029.3 hPa ENE 1.4 mph /  2.3 km/h 4.8 mph /  7.7 km/h 97 % 1.5 in /  38.1 mm
09:13 6.8 °F /  -14 °C 6.4 °F /  -14.2 °C 1004.6 in /  34015.8 hPa ESE 3.2 mph /  5.1 km/h 4.8 mph /  7.7 km/h 97 % 1.5 in /  38.1 mm
09:27 6.7 °F /  -14.1 °C 6.3 °F /  -14.3 °C 1005.0 in /  34029.3 hPa East 1.4 mph /  2.3 km/h 4.8 mph /  7.7 km/h 97 % 1.5 in /  38.1 mm
09:33 6.5 °F /  -14.2 °C 6.1 °F /  -14.4 °C 1005.3 in /  34039.5 hPa East 1.4 mph /  2.3 km/h 3.2 mph /  5.1 km/h 97 % 1.5 in /  38.1 mm
09:39 6.4 °F /  -14.2 °C 6.0 °F /  -14.4 °C 1005.3 in /  34039.5 hPa Calm   4.8 mph /  7.7 km/h 97 % 1.5 in /  38.1 mm
09:47 6.3 °F /  -14.3 °C 5.9 °F /  -14.5 °C 1005.3 in /  34039.5 hPa Calm   3.2 mph /  5.1 km/h 97 % 1.5 in /  38.1 mm
09:53 6.3 °F /  -14.3 °C 5.9 °F /  -14.5 °C 1005.3 in /  34039.5 hPa Calm   1.6 mph /  2.6 km/h 97 % 1.5 in /  38.1 mm
10:01 6.2 °F /  -14.3 °C 5.8 °F /  -14.6 °C 1005.6 in /  34049.6 hPa Calm   1.6 mph /  2.6 km/h 97 % 1.5 in /  38.1 mm
10:09 6.2 °F /  -14.3 °C 5.6 °F /  -14.7 °C 1005.3 in /  34039.5 hPa East 1.4 mph /  2.3 km/h 3.2 mph /  5.1 km/h 96 % 1.5 in /  38.1 mm
10:15 6.2 °F /  -14.3 °C 5.6 °F /  -14.7 °C 1005.6 in /  34049.6 hPa Calm   3.2 mph /  5.1 km/h 96 % 1.5 in /  38.1 mm
10:21 6.2 °F /  -14.3 °C 5.6 °F /  -14.7 °C 1005.6 in /  34049.6 hPa Calm     96 % 1.3 in /  33.02 mm
10:29 6.2 °F /  -14.3 °C 5.6 °F /  -14.7 °C 1005.6 in /  34049.6 hPa Calm     96 % 1.3 in /  33.02 mm
10:37 6.2 °F /  -14.3 °C 5.6 °F /  -14.7 °C 1005.6 in /  34049.6 hPa Calm     96 % 1.0 in /  25.4 mm
10:43 6.2 °F /  -14.3 °C 5.6 °F /  -14.7 °C 1005.6 in /  34049.6 hPa Calm     96 % 1.0 in /  25.4 mm
10:45 6.2 °F /  -14.3 °C 5.6 °F /  -14.7 °C 1005.6 in /  34049.6 hPa Calm     96 % 1.0 in /  25.4 mm
10:51 6.2 °F /  -14.3 °C 5.6 °F /  -14.7 °C 1005.6 in /  34049.6 hPa Calm     96 % 1.0 in /  25.4 mm
10:57 6.2 °F /  -14.3 °C 5.6 °F /  -14.7 °C 1006.0 in /  34063.2 hPa Calm   1.6 mph /  2.6 km/h 96 % 0.8 in /  20.32 mm
11:13 6.3 °F /  -14.3 °C 5.7 °F /  -14.6 °C 1006.0 in /  34063.2 hPa Calm   1.6 mph /  2.6 km/h 96 % 0.8 in /  20.32 mm
11:18 6.4 °F /  -14.2 °C 5.8 °F /  -14.6 °C 1006.0 in /  34063.2 hPa Calm     96 % 0.5 in /  12.7 mm
11:25 6.4 °F /  -14.2 °C 5.8 °F /  -14.6 °C 1006.0 in /  34063.2 hPa Calm     96 % 0.5 in /  12.7 mm
11:30 6.5 °F /  -14.2 °C 5.9 °F /  -14.5 °C 1006.3 in /  34073.3 hPa Calm     96 % 0.5 in /  12.7 mm
11:36 6.5 °F /  -14.2 °C 5.9 °F /  -14.5 °C 1006.3 in /  34073.3 hPa Calm     96 % 0.5 in /  12.7 mm
11:43 6.5 °F /  -14.2 °C 5.9 °F /  -14.5 °C 1006.3 in /  34073.3 hPa Calm     96 % 0.5 in /  12.7 mm
11:48 6.6 °F /  -14.1 °C 6.0 °F /  -14.4 °C 1006.3 in /  34073.3 hPa Calm     96 % 0.5 in /  12.7 mm
11:50 6.6 °F /  -14.1 °C 6.0 °F /  -14.4 °C 1006.3 in /  34073.3 hPa Calm     96 % 0.5 in /  12.7 mm
12:02 6.7 °F /  -14.1 °C 6.1 °F /  -14.4 °C 1006.0 in /  34063.2 hPa Calm     96 % 1.0 in /  25.4 mm
12:10 6.7 °F /  -14.1 °C 6.1 °F /  -14.4 °C 1006.0 in /  34063.2 hPa East 1.4 mph /  2.3 km/h 1.6 mph /  2.6 km/h 96 % 1.0 in /  25.4 mm
12:16 6.6 °F /  -14.1 °C 5.9 °F /  -14.5 °C 1006.0 in /  34063.2 hPa ENE 3.2 mph /  5.1 km/h 6.4 mph /  10.3 km/h 95 % 1.3 in /  33.02 mm
12:24 6.4 °F /  -14.2 °C 5.7 °F /  -14.6 °C 1006.0 in /  34063.2 hPa ENE 1.4 mph /  2.3 km/h 4.8 mph /  7.7 km/h 95 % 1.3 in /  33.02 mm
12:30 6.4 °F /  -14.2 °C 5.7 °F /  -14.6 °C 1006.0 in /  34063.2 hPa East 1.4 mph /  2.3 km/h 4.8 mph /  7.7 km/h 95 % 1.3 in /  33.02 mm
12:38 6.4 °F /  -14.2 °C 5.5 °F /  -14.7 °C 1006.0 in /  34063.2 hPa ENE 4.7 mph /  7.6 km/h 6.4 mph /  10.3 km/h 94 % 1.3 in /  33.02 mm
12:44 6.4 °F /  -14.2 °C 5.5 °F /  -14.7 °C 1006.0 in /  34063.2 hPa East 3.2 mph /  5.1 km/h 3.2 mph /  5.1 km/h 94 % 1.0 in /  25.4 mm
12:46 6.4 °F /  -14.2 °C 5.5 °F /  -14.7 °C 1006.0 in /  34063.2 hPa East 1.4 mph /  2.3 km/h 6.4 mph /  10.3 km/h 94 % 1.3 in /  33.02 mm
12:54 6.4 °F /  -14.2 °C 5.5 °F /  -14.7 °C 1005.6 in /  34049.6 hPa ENE 3.2 mph /  5.1 km/h 6.4 mph /  10.3 km/h 94 % 1.0 in /  25.4 mm
13:00 6.4 °F /  -14.2 °C 5.5 °F /  -14.7 °C 1005.6 in /  34049.6 hPa East 3.2 mph /  5.1 km/h 4.8 mph /  7.7 km/h 94 % 0.8 in /  20.32 mm
13:02 6.4 °F /  -14.2 °C 5.5 °F /  -14.7 °C 1005.6 in /  34049.6 hPa ENE 3.2 mph /  5.1 km/h 6.4 mph /  10.3 km/h 94 % 0.8 in /  20.32 mm
13:06 6.4 °F /  -14.2 °C 5.5 °F /  -14.7 °C 1005.6 in /  34049.6 hPa East 1.4 mph /  2.3 km/h 4.8 mph /  7.7 km/h 94 % 0.8 in /  20.32 mm
13:12 6.4 °F /  -14.2 °C 5.4 °F /  -14.8 °C 1005.6 in /  34049.6 hPa East 4.7 mph /  7.6 km/h 4.8 mph /  7.7 km/h 93 % 0.5 in /  12.7 mm
13:18 6.4 °F /  -14.2 °C 5.4 °F /  -14.8 °C 1005.6 in /  34049.6 hPa ENE 4.7 mph /  7.6 km/h 6.4 mph /  10.3 km/h 93 % 0.5 in /  12.7 mm
13:24 6.5 °F /  -14.2 °C 5.4 °F /  -14.8 °C 1005.6 in /  34049.6 hPa Calm   1.6 mph /  2.6 km/h 93 % 0.5 in /  12.7 mm
13:30 6.4 °F /  -14.2 °C 5.4 °F /  -14.8 °C 1005.6 in /  34049.6 hPa Calm   1.6 mph /  2.6 km/h 93 % 0.5 in /  12.7 mm
13:36 6.5 °F /  -14.2 °C 5.6 °F /  -14.7 °C 1006.0 in /  34063.2 hPa Calm   1.6 mph /  2.6 km/h 94 % 0.5 in /  12.7 mm
13:42 6.5 °F /  -14.2 °C 5.4 °F /  -14.8 °C 1006.0 in /  34063.2 hPa Calm     93 % 0.5 in /  12.7 mm
13:49 6.4 °F /  -14.2 °C 5.4 °F /  -14.8 °C 1006.0 in /  34063.2 hPa Calm   3.2 mph /  5.1 km/h 93 % 0.3 in /  7.62 mm
13:55 6.3 °F /  -14.3 °C 5.3 °F /  -14.8 °C 1005.6 in /  34049.6 hPa Calm   1.6 mph /  2.6 km/h 93 % 0.3 in /  7.62 mm
14:01 6.3 °F /  -14.3 °C 5.3 °F /  -14.8 °C 1006.0 in /  34063.2 hPa Calm   1.6 mph /  2.6 km/h 93 % 0.3 in /  7.62 mm
14:07 6.4 °F /  -14.2 °C 5.4 °F /  -14.8 °C 1006.0 in /  34063.2 hPa Calm   1.6 mph /  2.6 km/h 93 % 0.5 in /  12.7 mm
14:13 6.3 °F /  -14.3 °C 5.3 °F /  -14.8 °C 1006.0 in /  34063.2 hPa Calm   1.6 mph /  2.6 km/h 93 % 0.5 in /  12.7 mm
14:15 6.4 °F /  -14.2 °C 5.4 °F /  -14.8 °C 1006.0 in /  34063.2 hPa Calm   1.6 mph /  2.6 km/h 93 % 0.5 in /  12.7 mm
14:19 6.4 °F /  -14.2 °C 5.4 °F /  -14.8 °C 1005.6 in /  34049.6 hPa Calm     93 % 0.5 in /  12.7 mm
14:25 6.4 °F /  -14.2 °C 5.4 °F /  -14.8 °C 1005.6 in /  34049.6 hPa Calm   1.6 mph /  2.6 km/h 93 % 0.5 in /  12.7 mm
14:32 6.4 °F /  -14.2 °C 5.4 °F /  -14.8 °C 1006.0 in /  34063.2 hPa NNW 1.4 mph /  2.3 km/h 1.6 mph /  2.6 km/h 93 % 0.5 in /  12.7 mm
14:37 6.4 °F /  -14.2 °C 5.4 °F /  -14.8 °C 1006.0 in /  34063.2 hPa Calm   6.4 mph /  10.3 km/h 93 % 0.5 in /  12.7 mm
14:43 6.4 °F /  -14.2 °C 5.5 °F /  -14.7 °C 1006.0 in /  34063.2 hPa WNW 3.2 mph /  5.1 km/h 4.8 mph /  7.7 km/h 94 % 0.5 in /  12.7 mm
14:49 6.4 °F /  -14.2 °C 5.5 °F /  -14.7 °C 1006.0 in /  34063.2 hPa NNW 1.4 mph /  2.3 km/h 3.2 mph /  5.1 km/h 94 % 0.5 in /  12.7 mm
14:51 6.4 °F /  -14.2 °C 5.5 °F /  -14.7 °C 1006.0 in /  34063.2 hPa NNW 1.4 mph /  2.3 km/h 3.2 mph /  5.1 km/h 94 % 0.5 in /  12.7 mm
14:57 6.4 °F /  -14.2 °C 5.5 °F /  -14.7 °C 1006.0 in /  34063.2 hPa North 1.4 mph /  2.3 km/h 4.8 mph /  7.7 km/h 94 % 0.5 in /  12.7 mm
15:05 6.4 °F /  -14.2 °C 5.5 °F /  -14.7 °C 1006.0 in /  34063.2 hPa Calm   1.6 mph /  2.6 km/h 94 % 0.5 in /  12.7 mm
15:11 6.4 °F /  -14.2 °C 5.5 °F /  -14.7 °C 1006.0 in /  34063.2 hPa North 1.4 mph /  2.3 km/h 4.8 mph /  7.7 km/h 94 % 0.5 in /  12.7 mm
15:17 6.4 °F /  -14.2 °C 5.4 °F /  -14.8 °C 1006.3 in /  34073.3 hPa NNE 3.2 mph /  5.1 km/h 6.4 mph /  10.3 km/h 93 % 0.5 in /  12.7 mm
15:23 6.4 °F /  -14.2 °C 5.4 °F /  -14.8 °C 1006.3 in /  34073.3 hPa NNW 1.4 mph /  2.3 km/h 4.8 mph /  7.7 km/h 93 % 0.5 in /  12.7 mm
15:31 6.5 °F /  -14.2 °C 5.4 °F /  -14.8 °C 1006.3 in /  34073.3 hPa NNE 1.4 mph /  2.3 km/h 8.0 mph /  12.9 km/h 93 % 0.3 in /  7.62 mm
15:33 6.5 °F /  -14.2 °C 5.4 °F /  -14.8 °C 1006.3 in /  34073.3 hPa NNW 1.4 mph /  2.3 km/h 8.0 mph /  12.9 km/h 93 % 0.3 in /  7.62 mm
15:37 6.4 °F /  -14.2 °C 5.4 °F /  -14.8 °C 1006.3 in /  34073.3 hPa North 4.7 mph /  7.6 km/h 6.4 mph /  10.3 km/h 93 % 0.3 in /  7.62 mm
15:44 6.4 °F /  -14.2 °C 5.4 °F /  -14.8 °C 1006.3 in /  34073.3 hPa NNW 1.4 mph /  2.3 km/h 11.3 mph /  18.2 km/h 93 % 0.3 in /  7.62 mm
15:53 6.4 °F /  -14.2 °C 5.4 °F /  -14.8 °C 1006.3 in /  34073.3 hPa North 3.2 mph /  5.1 km/h 11.3 mph /  18.2 km/h 93 % 0.3 in /  7.62 mm
15:59 6.4 °F /  -14.2 °C 5.4 °F /  -14.8 °C 1006.3 in /  34073.3 hPa North 7.9 mph /  12.7 km/h 14.5 mph /  23.3 km/h 93 % 0.3 in /  7.62 mm
16:01 6.4 °F /  -14.2 °C 5.4 °F /  -14.8 °C 1006.3 in /  34073.3 hPa NNW 6.4 mph /  10.3 km/h 11.3 mph /  18.2 km/h 93 % 0.3 in /  7.62 mm
16:09 6.5 °F /  -14.2 °C 5.4 °F /  -14.8 °C 1006.0 in /  34063.2 hPa WNW 4.7 mph /  7.6 km/h 6.4 mph /  10.3 km/h 93 % 0.3 in /  7.62 mm
16:15 6.5 °F /  -14.2 °C 5.4 °F /  -14.8 °C 1006.0 in /  34063.2 hPa NNW 4.7 mph /  7.6 km/h 14.5 mph /  23.3 km/h 93 % 0.3 in /  7.62 mm
16:21 6.5 °F /  -14.2 °C 5.4 °F /  -14.8 °C 1006.3 in /  34073.3 hPa NNW 7.9 mph /  12.7 km/h 11.3 mph /  18.2 km/h 93 % 0.3 in /  7.62 mm
16:27 6.4 °F /  -14.2 °C 5.4 °F /  -14.8 °C 1006.3 in /  34073.3 hPa North 7.9 mph /  12.7 km/h 8.0 mph /  12.9 km/h 93 % 0.3 in /  7.62 mm
16:33 6.4 °F /  -14.2 °C 5.4 °F /  -14.8 °C 1006.3 in /  34073.3 hPa North 3.2 mph /  5.1 km/h 6.4 mph /  10.3 km/h 93 % 0.3 in /  7.62 mm
16:41 6.4 °F /  -14.2 °C 5.5 °F /  -14.7 °C 1006.3 in /  34073.3 hPa NNE 1.4 mph /  2.3 km/h 4.8 mph /  7.7 km/h 94 % 0.3 in /  7.62 mm
16:45 6.4 °F /  -14.2 °C 5.5 °F /  -14.7 °C 1006.3 in /  34073.3 hPa North 3.2 mph /  5.1 km/h 6.4 mph /  10.3 km/h 94 % 0.3 in /  7.62 mm
16:47 6.4 °F /  -14.2 °C 5.4 °F /  -14.8 °C 1006.3 in /  34073.3 hPa Calm   6.4 mph /  10.3 km/h 93 % 0.3 in /  7.62 mm
16:55 6.4 °F /  -14.2 °C 5.4 °F /  -14.8 °C 1006.7 in /  34086.9 hPa NNE 4.7 mph /  7.6 km/h 8.0 mph /  12.9 km/h 93 % 0.3 in /  7.62 mm
17:03 6.4 °F /  -14.2 °C 5.4 °F /  -14.8 °C 1006.7 in /  34086.9 hPa North 1.4 mph /  2.3 km/h 9.7 mph /  15.6 km/h 93 % 0.3 in /  7.62 mm
17:11 6.4 °F /  -14.2 °C 5.4 °F /  -14.8 °C 1006.7 in /  34086.9 hPa NNE 6.4 mph /  10.3 km/h 9.7 mph /  15.6 km/h 93 % 0.0 in /  0 mm
17:17 6.3 °F /  -14.3 °C 5.3 °F /  -14.8 °C 1006.7 in /  34086.9 hPa North 4.7 mph /  7.6 km/h 11.3 mph /  18.2 km/h 93 % 0.0 in /  0 mm
17:23 6.3 °F /  -14.3 °C 5.4 °F /  -14.8 °C 1006.7 in /  34086.9 hPa North 3.2 mph /  5.1 km/h 12.9 mph /  20.8 km/h 94 % 0.0 in /  0 mm
17:27 6.3 °F /  -14.3 °C 5.4 °F /  -14.8 °C 1006.7 in /  34086.9 hPa North 6.4 mph /  10.3 km/h 8.0 mph /  12.9 km/h 94 % 0.0 in /  0 mm
17:29 6.3 °F /  -14.3 °C 5.4 °F /  -14.8 °C 1007.0 in /  34097 hPa NNE 6.4 mph /  10.3 km/h 11.3 mph /  18.2 km/h 94 % 0.0 in /  0 mm
17:35 6.3 °F /  -14.3 °C 5.4 °F /  -14.8 °C 1007.0 in /  34097 hPa NNE 3.2 mph /  5.1 km/h 8.0 mph /  12.9 km/h 94 % 0.3 in /  7.62 mm
17:41 6.3 °F /  -14.3 °C 5.4 °F /  -14.8 °C 1007.0 in /  34097 hPa North 4.7 mph /  7.6 km/h 9.7 mph /  15.6 km/h 94 % 0.3 in /  7.62 mm
17:47 6.3 °F /  -14.3 °C 5.4 °F /  -14.8 °C 1007.0 in /  34097 hPa NE 4.7 mph /  7.6 km/h 12.9 mph /  20.8 km/h 94 % 0.3 in /  7.62 mm
17:51 6.3 °F /  -14.3 °C 5.4 °F /  -14.8 °C 1007.0 in /  34097 hPa North 3.2 mph /  5.1 km/h 9.7 mph /  15.6 km/h 94 % 0.3 in /  7.62 mm
17:55 6.3 °F /  -14.3 °C 5.4 °F /  -14.8 °C 1007.0 in /  34097 hPa North 4.7 mph /  7.6 km/h 12.9 mph /  20.8 km/h 94 % 0.3 in /  7.62 mm
18:01 6.3 °F /  -14.3 °C 5.4 °F /  -14.8 °C 1007.0 in /  34097 hPa NNE 7.9 mph /  12.7 km/h 19.3 mph /  31.1 km/h 94 % 0.3 in /  7.62 mm
18:09 6.3 °F /  -14.3 °C 5.3 °F /  -14.8 °C 1007.0 in /  34097 hPa NE 7.9 mph /  12.7 km/h 14.5 mph /  23.3 km/h 93 % 0.3 in /  7.62 mm
18:15 6.3 °F /  -14.3 °C 5.3 °F /  -14.8 °C 1007.0 in /  34097 hPa NNE 9.7 mph /  15.6 km/h 12.9 mph /  20.8 km/h 93 % 0.3 in /  7.62 mm
18:21 6.3 °F /  -14.3 °C 5.3 °F /  -14.8 °C 1007.0 in /  34097 hPa NE 3.2 mph /  5.1 km/h 11.3 mph /  18.2 km/h 93 % 0.3 in /  7.62 mm
18:27 6.3 °F /  -14.3 °C 5.3 °F /  -14.8 °C 1007.3 in /  34107.2 hPa NNE 3.2 mph /  5.1 km/h 12.9 mph /  20.8 km/h 93 % 0.3 in /  7.62 mm
18:29 6.3 °F /  -14.3 °C 5.3 °F /  -14.8 °C 1007.3 in /  34107.2 hPa NNE 1.4 mph /  2.3 km/h 9.7 mph /  15.6 km/h 93 % 0.3 in /  7.62 mm
18:35 6.3 °F /  -14.3 °C 5.4 °F /  -14.8 °C 1007.3 in /  34107.2 hPa NNW 11.1 mph /  17.9 km/h 14.5 mph /  23.3 km/h 94 % 0.0 in /  0 mm
18:45 6.3 °F /  -14.3 °C 5.4 °F /  -14.8 °C 1007.7 in /  34120.7 hPa East 1.4 mph /  2.3 km/h 11.3 mph /  18.2 km/h 94 % 0.0 in /  0 mm
18:57 6.3 °F /  -14.3 °C 5.4 °F /  -14.8 °C 1007.7 in /  34120.7 hPa North 1.4 mph /  2.3 km/h 14.5 mph /  23.3 km/h 94 % 0.0 in /  0 mm
19:07 6.2 °F /  -14.3 °C 5.3 °F /  -14.8 °C 1007.7 in /  34120.7 hPa NNE 3.2 mph /  5.1 km/h 8.0 mph /  12.9 km/h 94 % 0.0 in /  0 mm
19:15 6.2 °F /  -14.3 °C 5.3 °F /  -14.8 °C 1007.7 in /  34120.7 hPa North 4.7 mph /  7.6 km/h 16.1 mph /  25.9 km/h 94 % 0.0 in /  0 mm
19:26 6.2 °F /  -14.3 °C 5.3 °F /  -14.8 °C 1007.7 in /  34120.7 hPa NNE 7.9 mph /  12.7 km/h 12.9 mph /  20.8 km/h 94 % 0.0 in /  0 mm
19:31 6.2 °F /  -14.3 °C 5.3 °F /  -14.8 °C 1007.7 in /  34120.7 hPa NE 9.7 mph /  15.6 km/h 17.7 mph /  28.5 km/h 94 % 0.0 in /  0 mm
19:38 6.2 °F /  -14.3 °C 5.3 °F /  -14.8 °C 1007.7 in /  34120.7 hPa NNE 9.7 mph /  15.6 km/h 19.3 mph /  31.1 km/h 94 % 0.0 in /  0 mm
19:44 6.3 °F /  -14.3 °C 5.4 °F /  -14.8 °C 1007.7 in /  34120.7 hPa NNE 11.1 mph /  17.9 km/h 19.3 mph /  31.1 km/h 94 % 0.0 in /  0 mm
19:49 6.3 °F /  -14.3 °C 5.4 °F /  -14.8 °C 1007.7 in /  34120.7 hPa NNE 11.1 mph /  17.9 km/h 14.5 mph /  23.3 km/h 94 % 0.0 in /  0 mm
19:51 6.3 °F /  -14.3 °C 5.4 °F /  -14.8 °C 1007.7 in /  34120.7 hPa NNE 7.9 mph /  12.7 km/h 17.7 mph /  28.5 km/h 94 % 0.0 in /  0 mm
19:55 6.3 °F /  -14.3 °C 5.4 °F /  -14.8 °C 1007.7 in /  34120.7 hPa ENE 17.7 mph /  28.5 km/h 22.5 mph /  36.2 km/h 94 % 0.0 in /  0 mm
19:57 6.3 °F /  -14.3 °C 5.4 °F /  -14.8 °C 1007.7 in /  34120.7 hPa NE 11.1 mph /  17.9 km/h 22.5 mph /  36.2 km/h 94 % 0.0 in /  0 mm
20:01 6.3 °F /  -14.3 °C 5.4 °F /  -14.8 °C 1007.7 in /  34120.7 hPa NNE 16.3 mph /  26.2 km/h 16.3 mph /  26.2 km/h 94 % 0.0 in /  0 mm
20:07 6.3 °F /  -14.3 °C 5.4 °F /  -14.8 °C 1008.0 in /  34130.9 hPa North 6.4 mph /  10.3 km/h 19.3 mph /  31.1 km/h 94 % 0.0 in /  0 mm
20:15 6.3 °F /  -14.3 °C 5.4 °F /  -14.8 °C 1008.0 in /  34130.9 hPa NE 7.9 mph /  12.7 km/h 17.7 mph /  28.5 km/h 94 % 0.0 in /  0 mm
20:21 6.3 °F /  -14.3 °C 5.4 °F /  -14.8 °C 1008.0 in /  34130.9 hPa NNW 7.9 mph /  12.7 km/h 14.5 mph /  23.3 km/h 94 % 0.0 in /  0 mm
20:27 6.3 °F /  -14.3 °C 5.4 °F /  -14.8 °C 1008.4 in /  34144.4 hPa NE 6.4 mph /  10.3 km/h 16.1 mph /  25.9 km/h 94 % 0.0 in /  0 mm
20:33 6.3 °F /  -14.3 °C 5.4 °F /  -14.8 °C 1008.4 in /  34144.4 hPa NE 9.7 mph /  15.6 km/h 16.1 mph /  25.9 km/h 94 % 0.0 in /  0 mm
20:35 6.3 °F /  -14.3 °C 5.4 °F /  -14.8 °C 1008.4 in /  34144.4 hPa NNE 6.4 mph /  10.3 km/h 19.3 mph /  31.1 km/h 94 % 0.0 in /  0 mm
20:41 6.3 °F /  -14.3 °C 5.4 °F /  -14.8 °C 1008.0 in /  34130.9 hPa NE 7.9 mph /  12.7 km/h 16.1 mph /  25.9 km/h 94 % 0.0 in /  0 mm
20:45 6.3 °F /  -14.3 °C 5.4 °F /  -14.8 °C 1008.4 in /  34144.4 hPa NE 4.7 mph /  7.6 km/h 16.1 mph /  25.9 km/h 94 % 0.0 in /  0 mm
20:48 6.3 °F /  -14.3 °C 5.4 °F /  -14.8 °C 1008.4 in /  34144.4 hPa NE 6.4 mph /  10.3 km/h 19.3 mph /  31.1 km/h 94 % 0.0 in /  0 mm
20:56 6.3 °F /  -14.3 °C 5.4 °F /  -14.8 °C 1008.7 in /  34154.6 hPa NNW 4.7 mph /  7.6 km/h 16.1 mph /  25.9 km/h 94 % 0.0 in /  0 mm
21:04 6.2 °F /  -14.3 °C 5.3 °F /  -14.8 °C 1008.4 in /  34144.4 hPa NNW 16.3 mph /  26.2 km/h 19.3 mph /  31.1 km/h 94 % 0.0 in /  0 mm
21:12 6.2 °F /  -14.3 °C 5.3 °F /  -14.8 °C 1008.4 in /  34144.4 hPa NE 9.7 mph /  15.6 km/h 25.7 mph /  41.4 km/h 94 % 0.5 in /  12.7 mm
21:18 6.2 °F /  -14.3 °C 5.3 °F /  -14.8 °C 1008.7 in /  34154.6 hPa NNW 4.7 mph /  7.6 km/h 16.1 mph /  25.9 km/h 94 % 0.8 in /  20.32 mm
21:24 6.1 °F /  -14.4 °C 5.2 °F /  -14.9 °C 1008.4 in /  34144.4 hPa NE 14.3 mph /  23 km/h 17.7 mph /  28.5 km/h 94 % 1.0 in /  25.4 mm
21:30 6.1 °F /  -14.4 °C 5.4 °F /  -14.8 °C 1008.7 in /  34154.6 hPa NNE 11.1 mph /  17.9 km/h 19.3 mph /  31.1 km/h 95 % 1.0 in /  25.4 mm
21:36 6.0 °F /  -14.4 °C 5.3 °F /  -14.8 °C 1008.7 in /  34154.6 hPa NNE 9.7 mph /  15.6 km/h 14.5 mph /  23.3 km/h 95 % 1.0 in /  25.4 mm
21:42 6.0 °F /  -14.4 °C 5.3 °F /  -14.8 °C 1008.7 in /  34154.6 hPa NE 13.0 mph /  20.9 km/h 16.1 mph /  25.9 km/h 95 % 1.3 in /  33.02 mm
21:52 6.0 °F /  -14.4 °C 5.3 °F /  -14.8 °C 1008.7 in /  34154.6 hPa NNE 11.1 mph /  17.9 km/h 19.3 mph /  31.1 km/h 95 % 1.3 in /  33.02 mm
21:58 6.0 °F /  -14.4 °C 5.3 °F /  -14.8 °C 1009.0 in /  34164.7 hPa North 13.0 mph /  20.9 km/h 14.5 mph /  23.3 km/h 95 % 1.3 in /  33.02 mm
22:04 6.0 °F /  -14.4 °C 5.3 °F /  -14.8 °C 1008.7 in /  34154.6 hPa NNE 6.4 mph /  10.3 km/h 20.9 mph /  33.6 km/h 95 % 1.3 in /  33.02 mm
22:08 6.0 °F /  -14.4 °C 5.3 °F /  -14.8 °C 1008.7 in /  34154.6 hPa NE 6.4 mph /  10.3 km/h 20.9 mph /  33.6 km/h 95 % 1.0 in /  25.4 mm
22:16 6.0 °F /  -14.4 °C 5.3 °F /  -14.8 °C 1008.7 in /  34154.6 hPa NE 14.3 mph /  23 km/h 19.3 mph /  31.1 km/h 95 % 0.5 in /  12.7 mm
22:22 6.0 °F /  -14.4 °C 5.3 °F /  -14.8 °C 1008.7 in /  34154.6 hPa ENE 9.7 mph /  15.6 km/h 16.1 mph /  25.9 km/h 95 % 0.3 in /  7.62 mm
22:30 6.0 °F /  -14.4 °C 5.3 °F /  -14.8 °C 1009.0 in /  34164.7 hPa NE 7.9 mph /  12.7 km/h 12.9 mph /  20.8 km/h 95 % 0.3 in /  7.62 mm
22:38 6.0 °F /  -14.4 °C 5.3 °F /  -14.8 °C 1008.7 in /  34154.6 hPa NNE 16.3 mph /  26.2 km/h 16.3 mph /  26.2 km/h 95 % 0.3 in /  7.62 mm
22:44 6.0 °F /  -14.4 °C 5.3 °F /  -14.8 °C 1009.0 in /  34164.7 hPa North 9.7 mph /  15.6 km/h 14.5 mph /  23.3 km/h 95 % 0.0 in /  0 mm
22:50 6.0 °F /  -14.4 °C 5.3 °F /  -14.8 °C 1008.7 in /  34154.6 hPa NNE 17.7 mph /  28.5 km/h 17.7 mph /  28.5 km/h 95 % 0.0 in /  0 mm
22:56 6.0 °F /  -14.4 °C 5.3 °F /  -14.8 °C 1008.7 in /  34154.6 hPa NE 11.1 mph /  17.9 km/h 19.3 mph /  31.1 km/h 95 % 0.0 in /  0 mm
23:04 6.0 °F /  -14.4 °C 5.3 °F /  -14.8 °C 1009.0 in /  34164.7 hPa NNE 11.1 mph /  17.9 km/h 17.7 mph /  28.5 km/h 95 % 0.0 in /  0 mm
23:10 6.1 °F /  -14.4 °C 5.4 °F /  -14.8 °C 1009.0 in /  34164.7 hPa WNW 7.9 mph /  12.7 km/h 16.1 mph /  25.9 km/h 95 % 0.0 in /  0 mm
23:16 6.1 °F /  -14.4 °C 5.4 °F /  -14.8 °C 1009.0 in /  34164.7 hPa NNW 7.9 mph /  12.7 km/h 16.1 mph /  25.9 km/h 95 % 0.0 in /  0 mm
23:22 6.1 °F /  -14.4 °C 5.4 °F /  -14.8 °C 1009.0 in /  34164.7 hPa NNE 6.4 mph /  10.3 km/h 16.1 mph /  25.9 km/h 95 % 0.0 in /  0 mm
23:28 6.1 °F /  -14.4 °C 5.4 °F /  -14.8 °C 1009.0 in /  34164.7 hPa ENE 3.2 mph /  5.1 km/h 17.7 mph /  28.5 km/h 95 % 0.0 in /  0 mm
23:36 6.1 °F /  -14.4 °C 5.4 °F /  -14.8 °C 1009.0 in /  34164.7 hPa NE 16.3 mph /  26.2 km/h 19.3 mph /  31.1 km/h 95 % 0.0 in /  0 mm
23:44 6.1 °F /  -14.4 °C 5.4 °F /  -14.8 °C 1009.0 in /  34164.7 hPa NNW 9.7 mph /  15.6 km/h 19.3 mph /  31.1 km/h 95 % 0.0 in /  0 mm
23:52 6.1 °F /  -14.4 °C 5.4 °F /  -14.8 °C 1009.0 in /  34164.7 hPa NNW 3.2 mph /  5.1 km/h 19.3 mph /  31.1 km/h 95 % 0.0 in /  0 mm
23:58 6.1 °F /  -14.4 °C 5.4 °F /  -14.8 °C 1009.0 in /  34164.7 hPa NE 17.7 mph /  28.5 km/h 20.9 mph /  33.6 km/h 95 % 0.0 in /  0 mm
Meteo18
Compliments of Weather Underground - 4 mb

Script developed by  Jim McMurry - jmcmurry@mwt.net Adapted for the template by  Wim van der Kuil - Leuven-Template.eu

You find our weather info also at:

European Weather Network

Weather Underground

Equipment we use:

Weather-station
Davis Vue

Weather-program
Meteobridge

Weather-server
Raspberry PI 2 B+

Provider
1 and 1

Davis Vue

Meteobridge

Raspberry PI 2 B+

1 and 1